Time;durP1;ratioP1;P1;durP2;ratioP2;P2;SDS_P1;SDS_P2;PMS_P1;PMS_P2;Temp;Humidity;BMP_temperature;BMP_pressure;BME280_temperature;BME280_humidity;BME280_pressure;Samples;Min_cycle;Max_cycle;Signal;HPM_P1;HPM_P2
2024/01/29 00:01:08;;;;;;;8.27;7.47;;;;;;;2.57;100.00;152026.13;5027257;28;20524;-79
2024/01/29 00:03:35;;;;;;;13.10;9.97;;;;;;;2.59;100.00;152030.00;5013039;28;20543;-78
2024/01/29 00:06:03;;;;;;;11.80;9.57;;;;;;;2.59;100.00;152030.00;5030944;28;20451;-79
2024/01/29 00:08:29;;;;;;;11.53;9.97;;;;;;;2.56;100.00;152022.28;5047052;28;20483;-79
2024/01/29 00:10:56;;;;;;;11.93;8.97;;;;;;;2.56;100.00;152022.28;5048986;28;20439;-79
2024/01/29 00:13:22;;;;;;;11.10;9.40;;;;;;;2.55;100.00;152020.97;5027030;28;20526;-79
2024/01/29 00:15:49;;;;;;;12.40;9.57;;;;;;;2.54;100.00;152017.16;5018374;28;20576;-79
2024/01/29 00:18:15;;;;;;;11.37;9.23;;;;;;;2.52;100.00;152013.25;5047961;28;20483;-79
2024/01/29 00:20:42;;;;;;;12.10;8.27;;;;;;;2.51;100.00;152010.72;5029041;28;20466;-79
2024/01/29 00:23:10;;;;;;;9.87;8.53;;;;;;;2.53;100.00;152014.56;5040921;28;20915;-79
2024/01/29 00:25:36;;;;;;;9.83;8.73;;;;;;;2.51;100.00;152009.41;5027438;28;20865;-78
2024/01/29 00:28:03;;;;;;;10.60;8.80;;;;;;;2.50;100.00;152006.84;5029676;28;20442;-79
2024/01/29 00:30:29;;;;;;;12.17;8.83;;;;;;;2.49;100.00;152004.28;5045930;28;20447;-79
2024/01/29 00:32:56;;;;;;;13.00;9.60;;;;;;;2.47;100.00;152001.69;5027169;28;20465;-79
2024/01/29 00:35:22;;;;;;;11.57;9.30;;;;;;;2.48;100.00;152003.00;5042841;28;20961;-79
2024/01/29 00:37:49;;;;;;;11.63;9.80;;;;;;;2.51;100.00;152009.41;5046685;28;20458;-79
2024/01/29 00:40:17;;;;;;;10.97;8.00;;;;;;;2.53;100.00;152014.56;5033017;28;20461;-79
2024/01/29 00:42:44;;;;;;;10.10;8.23;;;;;;;2.55;100.00;152019.69;5027876;28;20557;-79
2024/01/29 00:45:10;;;;;;;10.10;8.70;;;;;;;2.55;100.00;152019.69;5045994;28;20510;-79
2024/01/29 00:47:37;;;;;;;9.00;7.67;;;;;;;2.54;100.00;152017.16;5046310;28;20465;-79
2024/01/29 00:50:04;;;;;;;11.57;8.50;;;;;;;2.54;100.00;152018.44;5025871;28;20455;-79
2024/01/29 00:52:33;;;;;;;10.37;8.00;;;;;;;2.55;100.00;152020.97;5022480;28;20853;-78
2024/01/29 00:54:59;;;;;;;10.67;8.07;;;;;;;2.57;100.00;152024.88;5028399;28;20533;-78
2024/01/29 00:57:27;;;;;;;9.30;7.83;;;;;;;2.57;100.00;152024.88;5017059;28;20497;-79
2024/01/29 00:59:55;;;;;;;8.37;7.50;;;;;;;2.59;100.00;152031.28;5044979;28;20446;-79
2024/01/29 01:02:22;;;;;;;8.50;6.97;;;;;;;2.61;100.00;152036.44;5030635;28;20465;-79
2024/01/29 01:04:48;;;;;;;7.27;6.13;;;;;;;2.62;100.00;152037.72;5028162;28;20566;-79
2024/01/29 01:07:15;;;;;;;10.57;6.67;;;;;;;2.63;100.00;152040.25;5043712;28;20513;-79
2024/01/29 01:09:41;;;;;;;7.63;6.20;;;;;;;2.64;100.00;152044.16;5028025;28;20456;-79
2024/01/29 01:12:08;;;;;;;7.53;6.40;;;;;;;2.69;100.00;152055.72;5044519;28;20560;-79
2024/01/29 01:14:36;;;;;;;8.73;7.40;;;;;;;2.68;100.00;152053.13;5048285;28;20481;-78
2024/01/29 01:17:03;;;;;;;10.17;6.90;;;;;;;2.67;100.00;152050.56;5033722;28;20451;-79
2024/01/29 01:19:29;;;;;;;8.13;6.30;;;;;;;2.63;100.00;152041.56;5044556;28;20491;-78
2024/01/29 01:21:56;;;;;;;11.87;8.10;;;;;;;2.62;100.00;152037.72;5049562;28;20513;-78
2024/01/29 01:24:22;;;;;;;7.90;6.43;;;;;;;2.63;100.00;152040.25;5029575;28;20483;-78
2024/01/29 01:26:49;;;;;;;10.43;7.63;;;;;;;2.61;100.00;152035.13;5033196;28;20535;-79
2024/01/29 01:29:15;;;;;;;9.83;6.83;;;;;;;2.63;100.00;152040.25;5047615;28;20471;-78
2024/01/29 01:31:43;;;;;;;9.57;6.70;;;;;;;2.61;100.00;152036.44;5050898;28;20446;-78
2024/01/29 01:34:09;;;;;;;8.80;6.90;;;;;;;2.58;100.00;152027.41;5032720;28;20513;-79
2024/01/29 01:36:36;;;;;;;8.67;7.23;;;;;;;2.56;100.00;152022.28;5031200;28;20459;-78
2024/01/29 01:39:02;;;;;;;11.00;7.70;;;;;;;2.53;100.00;152014.56;5046458;28;20859;-78
2024/01/29 01:41:29;;;;;;;9.93;7.37;;;;;;;2.52;100.00;152013.25;5050315;28;20450;-79
2024/01/29 01:43:55;;;;;;;9.37;7.77;;;;;;;2.54;100.00;152018.44;5029581;28;20562;-79
2024/01/29 01:46:23;;;;;;;9.57;6.80;;;;;;;2.53;100.00;152015.84;5049060;28;20457;-79
2024/01/29 01:48:51;;;;;;;9.47;6.97;;;;;;;2.53;99.85;152014.56;5028583;28;20519;-79
2024/01/29 01:51:19;;;;;;;11.27;7.70;;;;;;;2.52;100.00;152011.97;5030389;28;20449;-79
2024/01/29 01:53:46;;;;;;;9.57;6.93;;;;;;;2.51;99.90;152010.72;5030978;28;21161;-79
2024/01/29 01:56:14;;;;;;;7.77;6.73;;;;;;;2.54;100.00;152017.16;5044760;28;20457;-78
2024/01/29 01:58:41;;;;;;;8.17;7.20;;;;;;;2.54;100.00;152018.44;5048452;28;21147;-79
2024/01/29 02:01:09;;;;;;;8.70;7.10;;;;;;;2.54;100.00;152018.44;5007630;28;20900;-79
2024/01/29 02:03:35;;;;;;;9.63;6.93;;;;;;;2.56;100.00;152022.28;5027280;28;20765;-79
2024/01/29 02:06:03;;;;;;;8.03;6.93;;;;;;;2.56;100.00;152022.28;5029309;28;20814;-78
2024/01/29 02:08:30;;;;;;;8.63;7.57;;;;;;;2.56;100.00;152023.56;5030692;28;20470;-78
2024/01/29 02:10:57;;;;;;;9.20;7.50;;;;;;;2.56;100.00;152023.56;5031167;28;20462;-79
2024/01/29 02:13:24;;;;;;;9.47;7.10;;;;;;;2.54;100.00;152017.16;5047505;28;20518;-78
2024/01/29 02:15:50;;;;;;;8.03;6.67;;;;;;;2.53;100.00;152014.56;5029391;28;20450;-79
2024/01/29 02:18:17;;;;;;;8.17;6.97;;;;;;;2.50;100.00;152006.84;5050125;28;20943;-78
2024/01/29 02:20:43;;;;;;;8.00;6.77;;;;;;;2.47;100.00;152001.69;5048817;28;20449;-78
2024/01/29 02:23:11;;;;;;;6.90;6.30;;;;;;;2.49;100.00;152005.53;5027916;28;20486;-79
2024/01/29 02:25:38;;;;;;;8.67;6.40;;;;;;;2.49;100.00;152005.53;5048672;28;20536;-78
2024/01/29 02:28:04;;;;;;;6.93;5.97;;;;;;;2.51;99.68;152010.72;5046037;28;20534;-79
2024/01/29 02:30:31;;;;;;;6.93;6.23;;;;;;;2.56;99.07;152022.28;5046431;28;20506;-78
2024/01/29 02:32:58;;;;;;;8.23;5.70;;;;;;;2.56;98.98;152022.28;5036079;28;20474;-79
2024/01/29 02:35:24;;;;;;;6.83;5.33;;;;;;;2.56;98.34;152023.56;5043312;28;20559;-78
2024/01/29 02:37:51;;;;;;;6.83;6.10;;;;;;;2.55;98.12;152020.97;5047760;28;20529;-78
2024/01/29 02:40:19;;;;;;;6.97;5.70;;;;;;;2.55;98.26;152019.69;5048295;28;20519;-78
2024/01/29 02:42:45;;;;;;;6.90;5.53;;;;;;;2.55;98.54;152020.97;5042082;28;20458;-79
2024/01/29 02:45:12;;;;;;;6.33;5.07;;;;;;;2.56;98.42;152022.28;5014271;28;20482;-79
2024/01/29 02:47:38;;;;;;;5.70;5.07;;;;;;;2.55;98.47;152020.97;5028887;28;20455;-79
2024/01/29 02:50:06;;;;;;;6.20;5.60;;;;;;;2.57;97.62;152026.13;5031719;28;20474;-79
2024/01/29 02:52:32;;;;;;;5.23;4.70;;;;;;;2.58;97.50;152027.41;5048508;28;20498;-79
2024/01/29 02:54:59;;;;;;;5.73;4.80;;;;;;;2.61;97.20;152035.13;5031765;28;20466;-79
2024/01/29 02:57:27;;;;;;;5.53;4.90;;;;;;;2.61;97.10;152035.13;5031855;28;21012;-78
2024/01/29 02:59:54;;;;;;;5.63;4.20;;;;;;;2.62;96.55;152037.72;5041839;28;20459;-78
2024/01/29 03:02:20;;;;;;;5.60;4.40;;;;;;;2.64;95.87;152042.84;5045602;28;20954;-78
2024/01/29 03:04:47;;;;;;;5.70;4.27;;;;;;;2.64;96.23;152044.16;5048222;28;21009;-78
2024/01/29 03:07:13;;;;;;;4.60;3.80;;;;;;;2.68;96.14;152053.13;5030845;28;20930;-79
2024/01/29 03:09:40;;;;;;;6.53;4.73;;;;;;;2.66;95.64;152048.00;5044857;28;20481;-78
2024/01/29 03:12:08;;;;;;;5.30;3.90;;;;;;;2.67;95.27;152051.88;5046973;28;20458;-78
2024/01/29 03:14:36;;;;;;;4.83;3.80;;;;;;;2.66;94.68;152048.00;5036039;28;21039;-79
2024/01/29 03:17:02;;;;;;;7.63;4.10;;;;;;;2.63;94.70;152040.25;5048260;28;20512;-79
2024/01/29 03:19:29;;;;;;;6.10;5.10;;;;;;;2.64;94.82;152042.84;5026893;28;20463;-78
2024/01/29 03:21:55;;;;;;;5.80;4.93;;;;;;;2.61;94.97;152035.13;5046183;28;20508;-78
2024/01/29 03:24:22;;;;;;;5.10;3.93;;;;;;;2.59;95.26;152030.00;5049653;28;20493;-78
2024/01/29 03:26:48;;;;;;;5.90;4.47;;;;;;;2.61;95.18;152035.13;5029012;28;20475;-78
2024/01/29 03:29:15;;;;;;;3.93;3.53;;;;;;;2.60;95.06;152033.84;5042819;28;20456;-78
2024/01/29 03:31:42;;;;;;;5.90;4.87;;;;;;;2.58;95.23;152027.41;5044960;28;20458;-78
2024/01/29 03:34:09;;;;;;;4.30;3.90;;;;;;;2.59;95.14;152030.00;5029737;28;20459;-79
2024/01/29 03:36:35;;;;;;;6.73;4.23;;;;;;;2.57;95.16;152024.88;5013064;28;20562;-78
2024/01/29 03:39:03;;;;;;;4.60;3.47;;;;;;;2.54;95.01;152017.16;5009910;28;20881;-78
2024/01/29 03:41:30;;;;;;;4.53;3.60;;;;;;;2.50;94.71;152008.13;5046614;28;20546;-78
2024/01/29 03:43:56;;;;;;;5.40;3.43;;;;;;;2.49;94.15;152005.53;5043409;28;20454;-78
2024/01/29 03:46:22;;;;;;;4.80;4.27;;;;;;;2.46;94.02;151997.84;5041513;28;20466;-79
2024/01/29 03:48:50;;;;;;;4.30;3.57;;;;;;;2.43;93.80;151991.44;5026004;28;20544;-79
2024/01/29 03:51:17;;;;;;;5.83;4.00;;;;;;;2.43;94.31;151990.13;5029362;28;20825;-79
2024/01/29 03:53:43;;;;;;;5.50;4.30;;;;;;;2.41;94.45;151984.97;5038077;28;20458;-79
2024/01/29 03:56:10;;;;;;;5.47;4.53;;;;;;;2.41;94.46;151986.25;5037201;28;20533;-78
2024/01/29 03:58:36;;;;;;;4.20;3.80;;;;;;;2.42;94.50;151988.84;5028477;28;20460;-79
2024/01/29 04:01:03;;;;;;;4.27;3.73;;;;;;;2.43;94.43;151991.44;5028591;28;20505;-78
2024/01/29 04:03:29;;;;;;;4.40;3.90;;;;;;;2.42;95.13;151988.84;5048146;28;20442;-78
2024/01/29 04:05:57;;;;;;;4.80;4.10;;;;;;;2.43;95.12;151991.44;5045537;28;20483;-78
2024/01/29 04:08:24;;;;;;;5.47;4.30;;;;;;;2.43;95.24;151990.13;5029703;28;20470;-77
2024/01/29 04:10:51;;;;;;;6.37;4.10;;;;;;;2.39;95.56;151981.13;5029337;28;20524;-78
2024/01/29 04:13:17;;;;;;;5.07;4.33;;;;;;;2.38;95.76;151977.28;5026669;28;20459;-78
2024/01/29 04:15:44;;;;;;;5.07;3.73;;;;;;;2.32;95.69;151961.84;5038414;28;20508;-78
2024/01/29 04:18:10;;;;;;;6.00;3.90;;;;;;;2.24;94.96;151941.25;5028391;28;20471;-78
2024/01/29 04:20:37;;;;;;;4.73;4.10;;;;;;;2.29;94.76;151955.41;5029738;28;20439;-78
2024/01/29 04:23:05;;;;;;;5.20;4.60;;;;;;;2.27;94.79;151950.28;5029584;28;20516;-80
2024/01/29 04:25:31;;;;;;;4.80;3.77;;;;;;;2.20;94.95;151932.25;5044613;28;20485;-78
2024/01/29 04:27:57;;;;;;;6.03;4.23;;;;;;;2.11;95.46;151909.13;5031583;28;20478;-79
2024/01/29 04:30:24;;;;;;;6.00;4.43;;;;;;;2.11;96.15;151909.13;5028198;28;20462;-79
2024/01/29 04:32:50;;;;;;;5.50;4.90;;;;;;;2.11;96.79;151907.84;5029353;28;20540;-78
2024/01/29 04:35:17;;;;;;;5.57;5.00;;;;;;;2.08;96.88;151901.41;5044370;28;20482;-78
2024/01/29 04:37:43;;;;;;;7.33;5.30;;;;;;;2.08;96.96;151901.41;5046483;28;20462;-78
2024/01/29 04:40:12;;;;;;;5.50;4.50;;;;;;;2.04;97.14;151891.09;5047492;28;20803;-78
2024/01/29 04:42:39;;;;;;;5.90;4.67;;;;;;;1.97;96.65;151873.13;5029959;28;20446;-78
2024/01/29 04:45:07;;;;;;;7.00;5.90;;;;;;;1.97;96.90;151873.13;5047223;28;20884;-78
2024/01/29 04:47:33;;;;;;;6.20;5.20;;;;;;;1.97;97.73;151871.81;5045512;28;20435;-78
2024/01/29 04:50:00;;;;;;;5.37;4.27;;;;;;;1.98;97.84;151874.41;5046293;28;20461;-78
2024/01/29 04:52:26;;;;;;;6.33;5.00;;;;;;;1.98;98.00;151875.72;5039283;28;20567;-79
2024/01/29 04:54:53;;;;;;;5.83;4.80;;;;;;;2.00;97.96;151879.56;5027580;28;21043;-78
2024/01/29 04:57:22;;;;;;;5.80;5.30;;;;;;;1.95;98.12;151866.69;5027196;28;20516;-79
2024/01/29 04:59:49;;;;;;;5.80;5.07;;;;;;;1.97;98.54;151873.13;5043930;28;20452;-77
2024/01/29 05:02:16;;;;;;;6.17;5.40;;;;;;;1.96;98.26;151870.53;5035673;28;20443;-78
2024/01/29 05:04:42;;;;;;;7.10;5.90;;;;;;;1.97;98.61;151873.13;5024182;28;20470;-78
2024/01/29 05:07:09;;;;;;;9.07;6.40;;;;;;;1.97;99.32;151871.81;5039293;28;20883;-78
2024/01/29 05:09:35;;;;;;;8.17;5.57;;;;;;;1.97;99.15;151873.13;5039618;28;20502;-78
2024/01/29 05:12:02;;;;;;;6.33;5.63;;;;;;;1.95;99.18;151868.00;5043024;28;20792;-78
2024/01/29 05:14:30;;;;;;;8.30;5.83;;;;;;;1.96;99.40;151869.28;5028702;28;20494;-79
2024/01/29 05:16:56;;;;;;;8.00;5.73;;;;;;;1.96;99.16;151869.28;5024973;28;20452;-78
2024/01/29 05:19:23;;;;;;;7.20;5.60;;;;;;;1.95;99.50;151868.00;5040870;28;20566;-78
2024/01/29 05:21:49;;;;;;;6.47;5.83;;;;;;;1.92;99.19;151860.28;5029429;28;20871;-78
2024/01/29 05:24:16;;;;;;;9.13;5.87;;;;;;;1.89;99.62;151852.56;5040634;28;20450;-78
2024/01/29 05:26:42;;;;;;;6.73;5.40;;;;;;;1.88;99.43;151848.72;5029498;28;20474;-78
2024/01/29 05:29:09;;;;;;;7.40;5.83;;;;;;;1.82;99.29;151835.88;5029849;28;20529;-78
2024/01/29 05:31:37;;;;;;;9.10;7.57;;;;;;;1.84;99.08;151841.00;5023849;28;20455;-78
2024/01/29 05:34:03;;;;;;;10.30;6.40;;;;;;;1.87;98.46;151847.41;5047571;28;20442;-77
2024/01/29 05:36:30;;;;;;;8.80;6.00;;;;;;;1.88;98.45;151849.97;5047350;28;20489;-77
2024/01/29 05:38:56;;;;;;;6.77;6.07;;;;;;;1.80;98.50;151829.44;5048053;28;20500;-78
2024/01/29 05:41:22;;;;;;;6.90;5.70;;;;;;;1.74;98.40;151815.31;5045901;28;20454;-78
2024/01/29 05:43:49;;;;;;;5.90;5.30;;;;;;;1.73;99.05;151811.41;5047490;28;20458;-78
2024/01/29 05:46:15;;;;;;;9.60;7.73;;;;;;;1.71;99.63;151806.28;5030323;28;20536;-78
2024/01/29 05:48:43;;;;;;;10.77;7.60;;;;;;;1.69;99.53;151802.47;5048308;28;20455;-78
2024/01/29 05:51:10;;;;;;;9.13;6.97;;;;;;;1.69;100.00;151801.16;5042516;28;20487;-77
2024/01/29 05:53:36;;;;;;;7.93;6.97;;;;;;;1.68;100.00;151798.56;5045792;28;20447;-78
2024/01/29 05:56:05;;;;;;;9.20;7.23;;;;;;;1.68;100.00;151798.56;5047887;28;20435;-78
2024/01/29 05:58:33;;;;;;;10.23;8.13;;;;;;;1.64;100.00;151788.31;5047120;28;20435;-78
2024/01/29 06:01:00;;;;;;;9.87;7.53;;;;;;;1.59;100.00;151776.72;5037559;28;20891;-78
2024/01/29 06:03:26;;;;;;;13.07;7.80;;;;;;;1.58;100.00;151774.19;5027939;28;20443;-78
2024/01/29 06:05:54;;;;;;;10.10;7.50;;;;;;;1.53;100.00;151760.03;5027856;28;20899;-78
2024/01/29 06:08:21;;;;;;;9.27;7.30;;;;;;;1.50;100.00;151753.63;5039568;28;20466;-78
2024/01/29 06:10:47;;;;;;;10.70;8.20;;;;;;;1.47;100.00;151744.59;5040453;28;20517;-77
2024/01/29 06:13:14;;;;;;;8.50;7.70;;;;;;;1.46;100.00;151742.00;5040350;28;20530;-78
2024/01/29 06:15:40;;;;;;;9.67;7.80;;;;;;;1.45;100.00;151739.47;5020355;28;20497;-78
2024/01/29 06:18:07;;;;;;;14.33;9.00;;;;;;;1.46;100.00;151742.00;5039990;28;20901;-78
2024/01/29 06:23:17;;;;;;;10.90;7.90;;;;;;;1.44;100.00;151736.88;5039173;28;20471;-77
2024/01/29 06:25:44;;;;;;;9.80;8.20;;;;;;;1.42;100.00;151733.06;5033243;28;20471;-76
2024/01/29 06:28:10;;;;;;;11.80;8.20;;;;;;;1.38;100.00;151722.75;5028493;28;20991;-77
2024/01/29 06:30:37;;;;;;;9.83;8.50;;;;;;;1.39;100.00;151724.03;5023830;28;20471;-75
2024/01/29 06:33:04;;;;;;;10.20;7.70;;;;;;;1.40;100.00;151726.63;5036999;28;20518;-78
2024/01/29 06:35:30;;;;;;;15.50;8.93;;;;;;;1.40;100.00;151726.63;5041147;28;20459;-78
2024/01/29 06:37:57;;;;;;;11.30;8.10;;;;;;;1.40;100.00;151727.94;5025764;28;20514;-77
2024/01/29 06:40:27;;;;;;;10.33;9.23;;;;;;;1.43;100.00;151734.34;5036534;28;20538;-78
2024/01/29 06:42:54;;;;;;;14.97;11.30;;;;;;;1.43;100.00;151734.34;5018290;28;20451;-78
2024/01/29 06:45:20;;;;;;;12.70;9.97;;;;;;;1.43;100.00;151734.34;5023695;28;20470;-78
2024/01/29 06:47:47;;;;;;;11.57;9.50;;;;;;;1.47;100.00;151744.59;5026023;28;20549;-77
2024/01/29 06:50:13;;;;;;;9.87;7.90;;;;;;;1.52;100.00;151757.44;5022725;28;20885;-79
2024/01/29 06:52:40;;;;;;;11.00;8.57;;;;;;;1.49;100.00;151749.72;5038619;28;21027;-78
2024/01/29 06:55:07;;;;;;;9.33;8.07;;;;;;;1.51;100.00;151754.91;5041206;28;20474;-78
2024/01/29 06:57:35;;;;;;;10.53;7.00;;;;;;;1.56;100.00;151767.75;5039210;28;20451;-78
2024/01/29 07:00:03;;;;;;;9.50;7.47;;;;;;;1.59;100.00;151775.47;5039766;28;20466;-78
2024/01/29 07:02:30;;;;;;;11.37;7.77;;;;;;;1.60;100.00;151778.00;5024156;28;20469;-78
2024/01/29 07:04:56;;;;;;;9.20;8.03;;;;;;;1.61;100.00;151781.91;5039157;28;20758;-78
2024/01/29 07:07:23;;;;;;;10.37;7.90;;;;;;;1.61;100.00;151780.59;5027079;28;20536;-78
2024/01/29 07:09:54;;;;;;;11.83;8.27;;;;;;;1.65;100.00;151790.84;5040142;28;20470;-78
2024/01/29 07:12:20;;;;;;;10.77;8.30;;;;;;;1.64;100.00;151789.56;5038647;28;21039;-77
2024/01/29 07:14:49;;;;;;;9.00;7.57;;;;;;;1.68;100.00;151798.56;5027536;28;21088;-78
2024/01/29 07:17:15;;;;;;;10.23;7.53;;;;;;;1.73;100.00;151811.41;5022424;28;20483;-78
2024/01/29 07:19:42;;;;;;;10.03;8.07;;;;;;;1.77;100.00;151821.72;5039243;28;20701;-78
2024/01/29 07:22:14;;;;;;;12.17;8.70;;;;;;;1.82;100.00;151834.56;5037928;28;21082;-78
2024/01/29 07:24:40;;;;;;;12.60;8.90;;;;;;;1.93;100.00;151861.56;5037417;28;20454;-78
2024/01/29 07:27:07;;;;;;;13.50;8.30;;;;;;;2.03;100.00;151888.56;5040103;28;20478;-78
2024/01/29 07:29:33;;;;;;;13.00;8.03;;;;;;;2.17;100.00;151924.53;5035497;28;20556;-78
2024/01/29 07:32:02;;;;;;;10.50;8.43;;;;;;;2.47;100.00;152001.69;5034920;28;20454;-78
2024/01/29 07:34:29;;;;;;;11.20;8.70;;;;;;;3.11;100.00;152162.47;5038306;28;20561;-78
2024/01/29 07:36:55;;;;;;;10.37;9.27;;;;;;;3.89;100.00;152362.00;5022993;28;20480;-78
2024/01/29 07:39:22;;;;;;;10.10;8.60;;;;;;;4.42;98.55;152498.50;5037193;28;20491;-78
2024/01/29 07:41:49;;;;;;;10.03;8.60;;;;;;;4.67;94.44;152562.94;5039127;28;20435;-78
2024/01/29 07:44:16;;;;;;;9.90;8.57;;;;;;;4.81;92.16;152597.72;5042032;28;20517;-78
2024/01/29 07:46:42;;;;;;;12.77;8.90;;;;;;;4.78;90.34;152590.00;5027265;28;20916;-78
2024/01/29 07:49:12;;;;;;;9.50;8.13;;;;;;;4.83;89.68;152602.88;5020041;28;20865;-78
2024/01/29 07:51:40;;;;;;;9.30;7.63;;;;;;;4.84;87.47;152606.72;5042702;28;20464;-78
2024/01/29 07:54:07;;;;;;;9.20;7.67;;;;;;;4.77;87.05;152588.69;5040555;28;20487;-78
2024/01/29 07:56:34;;;;;;;8.97;8.00;;;;;;;4.64;86.53;152555.19;5022650;28;20513;-78
2024/01/29 07:59:00;;;;;;;9.83;8.10;;;;;;;4.50;87.85;152519.09;5036430;28;21033;-78
2024/01/29 08:01:30;;;;;;;12.20;8.70;;;;;;;4.32;87.99;152474.03;5015304;28;20973;-78
2024/01/29 08:03:57;;;;;;;9.30;8.10;;;;;;;4.04;88.76;152401.94;5023120;28;20525;-78
2024/01/29 08:06:26;;;;;;;10.40;8.03;;;;;;;3.81;91.18;152341.41;5039368;28;20488;-77
2024/01/29 08:08:53;;;;;;;10.23;8.70;;;;;;;3.63;92.57;152296.31;5042084;28;20468;-77
2024/01/29 08:11:20;;;;;;;8.83;7.43;;;;;;;3.53;93.01;152271.88;5029957;28;20490;-77
2024/01/29 08:13:46;;;;;;;13.40;9.20;;;;;;;3.49;94.60;152261.59;5044328;28;20486;-77
2024/01/29 08:16:13;;;;;;;9.57;8.57;;;;;;;3.45;95.18;152251.28;5044129;28;20505;-77
2024/01/29 08:18:39;;;;;;;10.73;9.63;;;;;;;3.45;96.21;152250.00;5022693;28;20467;-78
2024/01/29 08:21:06;;;;;;;11.20;8.70;;;;;;;3.44;95.93;152248.69;5039475;28;20883;-78
2024/01/29 08:23:34;;;;;;;12.03;8.47;;;;;;;3.47;96.27;152256.44;5040000;28;20553;-77
2024/01/29 08:26:01;;;;;;;11.07;8.63;;;;;;;3.45;95.89;152250.00;5024473;28;20467;-78
2024/01/29 08:28:27;;;;;;;11.73;8.57;;;;;;;3.44;95.95;152248.69;5042117;28;20515;-78
2024/01/29 08:30:58;;;;;;;11.60;9.27;;;;;;;3.50;96.13;152264.16;5039202;28;20512;-78
2024/01/29 08:33:25;;;;;;;9.63;8.63;;;;;;;3.52;96.98;152269.28;5018627;28;20577;-78
2024/01/29 08:35:52;;;;;;;10.30;7.90;;;;;;;3.53;97.28;152270.59;5020955;28;21250;-77
2024/01/29 08:38:18;;;;;;;9.60;8.60;;;;;;;3.55;97.44;152277.03;5035426;28;20451;-78
2024/01/29 08:40:46;;;;;;;9.10;8.10;;;;;;;3.58;97.02;152284.75;5025744;28;20455;-79
2024/01/29 08:43:13;;;;;;;10.00;8.30;;;;;;;3.64;96.65;152300.22;5038667;28;20451;-78
2024/01/29 08:45:40;;;;;;;11.67;9.30;;;;;;;3.71;96.64;152315.69;5041327;28;20447;-79
2024/01/29 08:48:07;;;;;;;9.90;7.97;;;;;;;3.72;97.42;152318.22;5033925;28;20459;-79
2024/01/29 08:50:34;;;;;;;17.90;8.10;;;;;;;3.72;98.00;152318.22;5037830;28;20463;-79
2024/01/29 08:53:01;;;;;;;11.33;7.90;;;;;;;3.70;97.24;152314.38;5020431;28;20460;-79
2024/01/29 08:55:27;;;;;;;10.87;9.20;;;;;;;3.75;97.29;152325.94;5025594;28;20493;-78
2024/01/29 08:57:56;;;;;;;9.40;8.10;;;;;;;3.79;96.72;152336.22;5039962;28;21047;-79
2024/01/29 09:00:23;;;;;;;9.67;8.37;;;;;;;3.85;96.75;152351.69;5020287;28;20459;-79
2024/01/29 09:02:50;;;;;;;9.17;8.27;;;;;;;3.88;96.40;152359.44;5024749;28;20946;-78
2024/01/29 09:05:16;;;;;;;8.60;7.30;;;;;;;3.93;96.19;152372.28;5021598;28;20458;-78
2024/01/29 09:07:43;;;;;;;8.47;7.63;;;;;;;3.98;95.13;152386.47;5037594;28;20570;-79
2024/01/29 09:10:10;;;;;;;8.40;7.47;;;;;;;4.02;95.11;152396.78;5039707;28;20448;-78
2024/01/29 09:12:37;;;;;;;9.20;8.17;;;;;;;4.10;93.80;152416.09;5034892;28;20474;-78
2024/01/29 09:15:06;;;;;;;10.97;8.00;;;;;;;4.13;93.25;152423.84;5038976;28;20486;-79
2024/01/29 09:17:32;;;;;;;8.77;7.20;;;;;;;4.21;92.19;152445.69;5038967;28;20454;-79
2024/01/29 09:19:59;;;;;;;9.23;7.23;;;;;;;4.27;91.04;152459.88;5020387;28;20474;-79
2024/01/29 09:22:25;;;;;;;7.90;7.10;;;;;;;4.32;90.28;152472.75;5035513;28;20455;-78
2024/01/29 09:24:52;;;;;;;9.70;8.13;;;;;;;4.39;89.41;152490.81;5033765;28;20495;-79
2024/01/29 09:27:19;;;;;;;9.30;7.27;;;;;;;4.44;88.90;152502.38;5025740;28;20468;-79
2024/01/29 09:29:45;;;;;;;10.00;8.17;;;;;;;4.49;88.98;152516.56;5019599;28;20463;-79
2024/01/29 09:32:16;;;;;;;8.17;7.07;;;;;;;4.55;88.17;152532.03;5034247;28;20859;-78
2024/01/29 09:34:42;;;;;;;7.63;6.50;;;;;;;4.62;88.13;152550.06;5036716;28;20925;-79
2024/01/29 09:37:09;;;;;;;7.27;6.57;;;;;;;4.66;87.10;152560.34;5036600;28;20879;-79
2024/01/29 09:39:35;;;;;;;6.77;5.90;;;;;;;4.74;86.99;152580.97;5026672;28;20462;-79
2024/01/29 09:42:04;;;;;;;9.17;6.10;;;;;;;4.82;84.78;152601.56;5025312;28;20463;-79
2024/01/29 09:44:37;;;;;;;7.37;6.13;;;;;;;5.07;85.16;152663.44;5042628;28;20477;-79
2024/01/29 09:47:05;;;;;;;6.50;5.80;;;;;;;5.29;84.64;152721.47;5035557;28;20475;-79
2024/01/29 09:49:34;;;;;;;8.23;7.13;;;;;;;5.30;83.69;152722.72;5025229;28;20552;-79
2024/01/29 09:52:01;;;;;;;9.80;7.67;;;;;;;5.32;83.44;152727.91;5038387;28;20482;-79
2024/01/29 09:54:28;;;;;;;8.07;7.23;;;;;;;5.35;83.34;152735.63;5038712;28;20816;-79
2024/01/29 09:56:54;;;;;;;8.67;7.37;;;;;;;5.39;83.29;152745.94;5019856;28;20565;-79
2024/01/29 09:59:21;;;;;;;10.73;7.40;;;;;;;5.42;84.46;152753.69;5041285;28;20536;-79
2024/01/29 10:01:48;;;;;;;9.90;8.40;;;;;;;5.42;84.85;152755.00;5041893;28;20455;-79
2024/01/29 10:04:14;;;;;;;8.53;7.57;;;;;;;5.42;84.53;152753.69;5038188;28;20455;-79
2024/01/29 10:06:42;;;;;;;8.57;7.00;;;;;;;5.45;85.08;152761.44;5020680;28;20474;-79
2024/01/29 10:09:11;;;;;;;9.90;7.70;;;;;;;5.47;84.86;152766.59;5039761;28;20619;-79
2024/01/29 10:11:39;;;;;;;9.70;6.23;;;;;;;5.51;83.98;152776.88;5038464;28;20901;-79
2024/01/29 10:14:06;;;;;;;6.70;6.07;;;;;;;5.59;82.56;152797.50;5028250;28;20511;-79
2024/01/29 10:16:33;;;;;;;8.50;6.57;;;;;;;5.65;82.04;152811.69;5035965;28;20546;-79
2024/01/29 10:19:00;;;;;;;8.50;6.70;;;;;;;5.72;80.85;152829.78;5027360;28;20455;-79
2024/01/29 10:21:26;;;;;;;8.10;6.70;;;;;;;5.79;80.91;152849.13;5039296;28;20456;-79
2024/01/29 10:23:57;;;;;;;7.40;6.60;;;;;;;5.85;81.13;152864.63;5028077;28;20478;-79
2024/01/29 10:26:24;;;;;;;7.60;6.80;;;;;;;5.93;81.20;152884.00;5027843;28;20468;-79
2024/01/29 10:29:01;;;;;;;7.63;6.57;;;;;;;6.01;81.10;152904.66;5040377;28;20763;-79
2024/01/29 10:31:27;;;;;;;7.90;7.10;;;;;;;6.03;81.52;152911.09;5039876;28;20443;-79
2024/01/29 10:33:56;;;;;;;7.93;6.67;;;;;;;6.05;81.04;152914.94;5038803;28;20451;-79
2024/01/29 10:36:29;;;;;;;6.47;5.87;;;;;;;6.05;80.64;152914.94;5039001;28;20457;-79
2024/01/29 10:38:58;;;;;;;6.73;5.83;;;;;;;6.07;79.90;152921.38;5038846;28;20559;-79
2024/01/29 10:41:26;;;;;;;7.33;5.70;;;;;;;6.09;81.12;152926.53;5037541;28;20459;-79
2024/01/29 10:43:54;;;;;;;9.20;5.50;;;;;;;6.10;80.19;152929.13;5038294;28;20454;-79
2024/01/29 10:46:21;;;;;;;6.53;5.87;;;;;;;6.10;80.40;152929.13;5038429;28;20466;-79
2024/01/29 10:48:48;;;;;;;8.43;6.20;;;;;;;6.15;79.39;152940.72;5039551;28;20821;-79
2024/01/29 10:51:15;;;;;;;7.70;5.83;;;;;;;6.24;78.53;152962.66;5036570;28;20473;-79
2024/01/29 10:53:42;;;;;;;7.03;5.80;;;;;;;6.32;78.65;152983.31;5036913;28;20879;-79
2024/01/29 10:56:13;;;;;;;6.57;5.93;;;;;;;6.42;78.56;153009.13;5034971;28;20459;-79
2024/01/29 10:58:39;;;;;;;6.73;6.10;;;;;;;6.46;78.05;153019.47;5037697;28;20462;-79
2024/01/29 11:01:06;;;;;;;6.00;5.23;;;;;;;6.52;77.15;153034.91;5037340;28;20458;-80
2024/01/29 11:03:34;;;;;;;6.33;5.70;;;;;;;6.59;75.44;153054.28;5039028;28;20467;-79
2024/01/29 11:06:08;;;;;;;5.27;4.60;;;;;;;6.68;74.51;153076.22;5034826;28;20462;-79
2024/01/29 11:08:36;;;;;;;9.90;7.90;;;;;;;6.87;76.74;153125.28;5027528;28;20866;-79
2024/01/29 11:11:04;;;;;;;9.40;8.30;;;;;;;7.06;77.54;153173.03;5036894;28;20812;-79
2024/01/29 11:13:32;;;;;;;9.87;8.87;;;;;;;7.30;77.95;153236.34;5035616;28;21024;-79
2024/01/29 11:15:59;;;;;;;10.80;9.50;;;;;;;7.49;77.73;153282.81;5034350;28;20487;-79
2024/01/29 11:18:25;;;;;;;10.80;9.67;;;;;;;7.68;77.90;153331.84;5021150;28;20816;-79
2024/01/29 11:20:52;;;;;;;10.97;9.77;;;;;;;7.81;76.88;153365.50;5036156;28;20536;-79
2024/01/29 11:23:22;;;;;;;13.17;9.23;;;;;;;7.85;76.82;153375.81;5035423;28;20824;-79
2024/01/29 11:25:49;;;;;;;13.80;8.87;;;;;;;7.94;76.67;153399.09;5036039;28;20486;-79
2024/01/29 11:28:15;;;;;;;10.93;9.80;;;;;;;8.26;75.62;153480.50;5036196;28;20479;-79